D/T METAR WX W/DIR W/SPE G/SPE TEMP DEWP
16/07/19 17:20 EGNM 161620Z 28013KT 250V320 9999 FEW047 22/11 Q1017 W (280°) 15.0mph 22°C 11°C
16/07/19 16:50 EGNM 161550Z 29012KT 9999 FEW045 22/11 Q1017 WNW (290°) 13.8mph 22°C 11°C
16/07/19 16:20 EGNM 161520Z 30012KT 270V330 9999 FEW045 23/12 Q1017 WNW (300°) 13.8mph 23°C 12°C
16/07/19 15:50 EGNM 161450Z 30009KT 250V360 9999 FEW048 22/11 Q1018 WNW (300°) 10.4mph 22°C 11°C
16/07/19 15:20 EGNM 161420Z 27010KT 240V310 9999 FEW044TCU 23/11 Q1018 W (270°) 11.5mph 23°C 11°C
16/07/19 14:20 EGNM 161320Z 25007KT 200V290 9999 FEW036 21/11 Q1018 WSW (250°) 8.1mph 21°C 11°C
16/07/19 13:50 EGNM 161250Z 26007KT 220V310 9999 FEW040 21/12 Q1018 W (260°) 8.1mph 21°C 12°C
16/07/19 13:20 EGNM 161220Z 27008KT 220V330 9999 FEW036 22/13 Q1018 W (270°) 9.2mph 22°C 13°C
16/07/19 12:50 EGNM 161150Z 27010KT 240V310 9999 FEW032 21/12 Q1018 W (270°) 11.5mph 21°C 12°C
16/07/19 12:20 EGNM 161120Z 27009KT 230V320 9999 FEW025 20/12 Q1019 W (270°) 10.4mph 20°C 12°C
16/07/19 11:50 EGNM 161050Z 27010KT 9999 FEW025 20/12 Q1019 W (270°) 11.5mph 20°C 12°C
16/07/19 11:20 EGNM 161020Z 24006KT 200V280 9999 FEW024 20/12 Q1019 WSW (240°) 6.9mph 20°C 12°C
16/07/19 10:50 EGNM 160950Z 26008KT 230V290 9999 FEW024 19/12 Q1019 W (260°) 9.2mph 19°C 12°C
16/07/19 10:20 EGNM 160920Z 27007KT 230V310 9999 FEW024 19/13 Q1019 W (270°) 8.1mph 19°C 13°C
16/07/19 09:50 EGNM 160850Z 26008KT 230V290 CAVOK 19/13 Q1019 W (260°) 9.2mph 19°C 13°C
16/07/19 09:20 EGNM 160820Z 26008KT 230V300 CAVOK 18/13 Q1019 W (260°) 9.2mph 18°C 13°C
16/07/19 08:50 EGNM 160750Z 27006KT CAVOK 17/13 Q1019 W (270°) 6.9mph 17°C 13°C
16/07/19 08:20 EGNM 160720Z 26006KT 230V290 CAVOK 17/13 Q1019 W (260°) 6.9mph 17°C 13°C
16/07/19 07:50 EGNM 160650Z 26009KT CAVOK 16/12 Q1019 W (260°) 10.4mph 16°C 12°C
16/07/19 07:20 EGNM 160620Z 27010KT CAVOK 16/12 Q1019 W (270°) 11.5mph 16°C 12°C
16/07/19 06:50 EGNM 160550Z 27008KT 240V300 CAVOK 15/12 Q1019 W (270°) 9.2mph 15°C 12°C
16/07/19 06:20 EGNM 160520Z 28006KT CAVOK 14/12 Q1019 W (280°) 6.9mph 14°C 12°C
16/07/19 05:50 EGNM 160450Z 27004KT CAVOK 13/11 Q1019 W (270°) 4.6mph 13°C 11°C
16/07/19 05:20 EGNM 160420Z 25007KT CAVOK 12/10 Q1019 WSW (250°) 8.1mph 12°C 10°C
16/07/19 04:50 EGNM 160350Z 24004KT CAVOK 13/10 Q1019 WSW (240°) 4.6mph 13°C 10°C
16/07/19 04:20 EGNM 160320Z 28005KT CAVOK 12/10 Q1019 W (280°) 5.8mph 12°C 10°C
16/07/19 03:20 EGNM 160220Z 30003KT CAVOK 13/11 Q1019 WNW (300°) 3.5mph 13°C 11°C
16/07/19 02:50 EGNM 160150Z 27004KT CAVOK 13/11 Q1020 W (270°) 4.6mph 13°C 11°C
16/07/19 02:20 EGNM 160120Z 28002KT CAVOK 14/12 Q1020 W (280°) 2.3mph 14°C 12°C
16/07/19 01:50 EGNM 160050Z 28002KT CAVOK 14/11 Q1020 W (280°) 2.3mph 14°C 11°C
16/07/19 01:20 EGNM 160020Z VRB01KT CAVOK 14/11 Q1020 N (0°) 1.2mph 14°C 11°C
16/07/19 00:50 EGNM 152350Z 18003KT CAVOK 14/12 Q1020 S (180°) 3.5mph 14°C 12°C
16/07/19 00:20 EGNM 152320Z 20003KT CAVOK 14/11 Q1020 SSW (200°) 3.5mph 14°C 11°C
15/07/19 23:50 EGNM 152250Z 18003KT CAVOK 15/12 Q1021 S (180°) 3.5mph 15°C 12°C
15/07/19 23:20 EGNM 152220Z VRB02KT CAVOK 16/11 Q1021 N (0°) 2.3mph 16°C 11°C
15/07/19 22:50 EGNM 152150Z VRB01KT CAVOK 17/12 Q1021 N (0°) 1.2mph 17°C 12°C
15/07/19 22:20 EGNM 152120Z VRB02KT CAVOK 16/12 Q1021 N (0°) 2.3mph 16°C 12°C
15/07/19 21:50 EGNM 152050Z VRB02KT CAVOK 18/12 Q1021 N (0°) 2.3mph 18°C 12°C
15/07/19 20:50 EGNM 151950Z 30004KT CAVOK 19/11 Q1020 WNW (300°) 4.6mph 19°C 11°C
15/07/19 20:20 EGNM 151920Z 31006KT 9999 FEW046 20/11 Q1020 NW (310°) 6.9mph 20°C 11°C
15/07/19 19:50 EGNM 151850Z 30008KT 9999 FEW047 21/11 Q1020 WNW (300°) 9.2mph 21°C 11°C
15/07/19 18:50 EGNM 151750Z 32005KT 290V350 9999 FEW045 21/10 Q1020 NW (320°) 5.8mph 21°C 10°C
15/07/19 18:20 EGNM 151720Z 31005KT 270V330 9999 FEW045 21/10 Q1020 NW (310°) 5.8mph 21°C 10°C
15/07/19 17:50 EGNM 151650Z VRB03KT 9999 FEW043 22/10 Q1020 N (0°) 3.5mph 22°C 10°C
15/07/19 17:20 EGNM 151620Z 31004KT 260V350 9999 FEW043 21/11 Q1021 NW (310°) 4.6mph 21°C 11°C
15/07/19 16:20 EGNM 151520Z 30005KT 230V330 9999 FEW045 21/10 Q1021 WNW (300°) 5.8mph 21°C 10°C
15/07/19 15:50 EGNM 151450Z VRB05KT 9999 FEW046 22/11 Q1021 N (0°) 5.8mph 22°C 11°C
15/07/19 15:20 EGNM 151420Z VRB04KT 9999 FEW046 22/11 Q1021 N (0°) 4.6mph 22°C 11°C